createdAt,value
2022-10-13T00:00:27.691Z,0.00
2022-10-13T00:05:15.949Z,0.00
2022-10-13T00:10:22.179Z,0.00
2022-10-13T00:15:28.179Z,0.00
2022-10-13T00:20:17.205Z,0.00
2022-10-13T00:25:23.236Z,0.00
2022-10-13T00:30:28.916Z,0.00
2022-10-13T00:35:18.335Z,0.00
2022-10-13T00:40:24.043Z,0.00
2022-10-13T00:45:30.103Z,0.00
2022-10-13T00:50:19.142Z,0.00
2022-10-13T00:55:25.231Z,0.00
2022-10-13T01:00:31.356Z,0.00
2022-10-13T01:05:20.579Z,0.00
2022-10-13T01:10:26.682Z,0.00
2022-10-13T01:15:33.190Z,0.00
2022-10-13T01:20:21.888Z,0.00
2022-10-13T01:25:27.827Z,0.00
2022-10-13T01:30:16.478Z,0.00
2022-10-13T01:35:22.561Z,0.00
2022-10-13T01:40:28.642Z,0.00
2022-10-13T01:45:17.731Z,0.00
2022-10-13T01:50:23.840Z,0.00
2022-10-13T01:55:29.832Z,0.00
2022-10-13T02:00:19.516Z,0.00
2022-10-13T02:05:24.198Z,0.00
2022-10-13T02:10:30.387Z,0.00
2022-10-13T02:15:19.301Z,0.00
2022-10-13T02:20:25.458Z,0.00
2022-10-13T02:25:31.452Z,0.00
2022-10-13T02:30:20.252Z,0.00
2022-10-13T02:35:26.187Z,0.00
2022-10-13T02:40:33.314Z,0.00
2022-10-13T02:45:21.280Z,0.00
2022-10-13T02:50:27.384Z,0.00
2022-10-13T02:55:16.402Z,0.00
2022-10-13T03:00:22.505Z,0.00
2022-10-13T03:05:27.794Z,0.00
2022-10-13T03:10:16.869Z,0.00
2022-10-13T03:15:23.084Z,0.00
2022-10-13T03:20:29.101Z,0.00
2022-10-13T03:25:18.107Z,0.00
2022-10-13T03:30:24.767Z,0.00
2022-10-13T03:35:30.818Z,0.00
2022-10-13T03:40:20.137Z,0.00
2022-10-13T03:45:25.897Z,0.00
2022-10-13T03:50:31.928Z,0.00
2022-10-13T03:55:20.958Z,0.00
2022-10-13T04:00:27.067Z,0.00
2022-10-13T04:05:32.453Z,0.00
2022-10-13T04:10:21.412Z,0.00
2022-10-13T04:15:27.515Z,0.00
2022-10-13T04:20:16.592Z,0.00
2022-10-13T04:25:22.605Z,0.00
2022-10-13T04:30:28.542Z,0.00
2022-10-13T04:35:17.556Z,0.00
2022-10-13T04:40:23.654Z,0.00
2022-10-13T04:45:29.636Z,0.00
2022-10-13T04:50:18.711Z,0.00
2022-10-13T04:55:24.785Z,0.00
2022-10-13T05:00:31.059Z,0.00
2022-10-13T05:05:19.122Z,0.00
2022-10-13T05:10:25.174Z,0.00
2022-10-13T05:15:31.249Z,0.00
2022-10-13T05:20:20.344Z,0.00
2022-10-13T05:25:29.212Z,0.12
2022-10-13T05:30:32.093Z,1.12
2022-10-13T05:35:21.173Z,2.52
2022-10-13T05:40:27.174Z,4.31
2022-10-13T05:45:16.282Z,7.03
2022-10-13T05:50:22.302Z,10.37
2022-10-13T05:55:28.350Z,14.16
2022-10-13T06:00:17.594Z,20.02
2022-10-13T06:05:23.800Z,21.43
2022-10-13T06:10:29.799Z,21.00
2022-10-13T06:15:18.883Z,23.57
2022-10-13T06:20:25.154Z,28.49
2022-10-13T06:25:31.056Z,31.48
2022-10-13T06:30:19.843Z,27.88
2022-10-13T06:35:25.860Z,28.72
2022-10-13T06:40:31.964Z,32.73
2022-10-13T06:45:21.073Z,39.00
2022-10-13T06:50:26.974Z,44.39
2022-10-13T06:55:33.086Z,49.20
2022-10-13T07:00:22.364Z,55.28
2022-10-13T07:05:27.507Z,62.47
2022-10-13T07:10:16.521Z,67.07
2022-10-13T07:15:22.582Z,70.15
2022-10-13T07:20:28.714Z,76.59
2022-10-13T07:25:17.688Z,78.55
2022-10-13T07:30:23.533Z,85.91
2022-10-13T07:35:30.911Z,81.76
2022-10-13T07:40:18.584Z,58.87
2022-10-13T07:45:24.660Z,60.34
2022-10-13T07:50:30.946Z,69.98
2022-10-13T07:55:19.820Z,67.40
2022-10-13T08:00:25.807Z,54.63
2022-10-13T08:05:31.381Z,43.00
2022-10-13T08:10:20.355Z,47.99
2022-10-13T08:15:44.276Z,62.37
2022-10-13T08:20:41.090Z,63.40
2022-10-13T08:25:21.325Z,53.70
2022-10-13T08:30:27.126Z,54.93
2022-10-13T08:35:15.969Z,82.80
2022-10-13T08:40:22.128Z,103.94
2022-10-13T08:45:41.026Z,84.62
2022-10-13T08:50:17.259Z,75.14
2022-10-13T08:55:23.327Z,77.27
2022-10-13T09:00:29.382Z,81.51
2022-10-13T09:05:18.634Z,107.75
2022-10-13T09:10:24.695Z,114.27
2022-10-13T09:15:30.747Z,130.41
2022-10-13T09:20:21.976Z,102.47
2022-10-13T09:25:25.923Z,86.01
2022-10-13T09:30:32.067Z,115.53
2022-10-13T09:35:21.241Z,153.49
2022-10-13T09:40:26.752Z,149.81
2022-10-13T09:45:32.831Z,99.14
2022-10-13T09:50:21.849Z,81.53
2022-10-13T09:55:32.153Z,137.19
2022-10-13T10:00:17.103Z,129.14
2022-10-13T10:05:22.341Z,142.86
2022-10-13T10:10:28.360Z,166.57
2022-10-13T10:15:17.433Z,153.19
2022-10-13T10:20:23.548Z,163.01
2022-10-13T10:25:29.523Z,145.99
2022-10-13T10:30:18.323Z,117.69
2022-10-13T10:35:24.369Z,118.73
2022-10-13T10:40:30.421Z,106.61
2022-10-13T10:45:19.465Z,103.76
2022-10-13T10:50:25.496Z,82.33
2022-10-13T10:55:31.579Z,65.58
2022-10-13T11:00:20.794Z,57.43
2022-10-13T11:05:26.028Z,54.83
2022-10-13T11:10:32.150Z,80.39
2022-10-13T11:15:21.150Z,105.09
2022-10-13T11:20:27.215Z,89.63
2022-10-13T11:25:16.232Z,57.43
2022-10-13T11:30:22.195Z,48.02
2022-10-13T11:35:27.972Z,41.09
2022-10-13T11:40:17.086Z,37.37
2022-10-13T11:45:23.091Z,36.89
2022-10-13T11:50:29.117Z,39.84
2022-10-13T11:55:18.156Z,47.57
2022-10-13T12:00:24.352Z,40.63
2022-10-13T12:05:30.650Z,39.70
2022-10-13T12:10:19.651Z,50.23
2022-10-13T12:15:25.702Z,48.64
2022-10-13T12:20:32.099Z,31.30
2022-10-13T12:25:20.814Z,32.07
2022-10-13T12:30:26.610Z,39.15
2022-10-13T12:35:32.525Z,42.44
2022-10-13T12:40:21.769Z,55.24
2022-10-13T12:45:28.138Z,57.88
2022-10-13T12:50:16.852Z,61.88
2022-10-13T12:55:22.767Z,63.75
2022-10-13T13:00:28.926Z,69.78
2022-10-13T13:05:17.182Z,73.39
2022-10-13T13:10:23.329Z,79.87
2022-10-13T13:15:29.360Z,86.71
2022-10-13T13:30:30.423Z,47.22
2022-10-13T13:35:19.295Z,41.32
2022-10-13T13:40:25.300Z,44.98
2022-10-13T13:45:31.416Z,46.87
2022-10-13T13:50:20.416Z,49.83
2022-10-13T13:55:26.514Z,55.31
2022-10-13T14:00:32.542Z,46.33
2022-10-13T14:05:20.847Z,30.65
2022-10-13T14:10:26.944Z,33.83
2022-10-13T14:15:15.991Z,34.73
2022-10-13T14:20:22.080Z,43.67
2022-10-13T14:25:28.061Z,56.80
2022-10-13T14:30:17.014Z,62.23
2022-10-13T14:35:23.186Z,59.18
2022-10-13T14:40:29.017Z,49.63
2022-10-13T14:45:18.139Z,36.53
2022-10-13T14:50:24.177Z,46.85
2022-10-13T14:55:30.247Z,60.25
2022-10-13T15:00:19.346Z,53.41
2022-10-13T15:05:25.774Z,36.49
2022-10-13T15:10:31.840Z,41.33
2022-10-13T15:15:20.909Z,39.22
2022-10-13T15:20:26.950Z,41.85
2022-10-13T15:25:33.706Z,35.21
2022-10-13T15:30:21.725Z,31.85
2022-10-13T15:35:27.850Z,38.91
2022-10-13T15:40:16.858Z,38.79
2022-10-13T15:45:22.835Z,33.11
2022-10-13T15:50:28.935Z,26.33
2022-10-13T15:55:17.981Z,20.63
2022-10-13T16:00:24.207Z,15.92
2022-10-13T16:05:29.470Z,11.35
2022-10-13T16:10:18.506Z,7.31
2022-10-13T16:15:24.635Z,5.12
2022-10-13T16:20:30.604Z,3.46
2022-10-13T16:25:20.061Z,1.74
2022-10-13T16:30:25.306Z,0.37
2022-10-13T16:35:31.460Z,0.00
2022-10-13T16:40:20.503Z,0.00
2022-10-13T16:45:47.716Z,0.00
2022-10-13T16:50:32.885Z,0.00
2022-10-13T16:55:21.602Z,0.00
2022-10-13T17:00:27.717Z,0.00
2022-10-13T17:05:15.962Z,0.00
2022-10-13T17:10:22.050Z,0.00
2022-10-13T17:15:28.089Z,0.00
2022-10-13T17:20:17.214Z,0.00
2022-10-13T17:25:23.190Z,0.00
2022-10-13T17:30:28.877Z,0.00
2022-10-13T17:35:18.067Z,0.00
2022-10-13T17:40:24.079Z,0.00
2022-10-13T17:45:30.070Z,0.00
2022-10-13T17:50:19.411Z,0.00
2022-10-13T17:55:25.112Z,0.00
2022-10-13T18:00:34.087Z,0.00
2022-10-13T18:05:20.531Z,0.00
2022-10-13T18:10:26.593Z,0.00
2022-10-13T18:15:32.642Z,0.00
2022-10-13T18:20:21.697Z,0.00
2022-10-13T18:25:27.714Z,0.00
2022-10-13T18:30:22.060Z,0.00
2022-10-13T18:35:22.613Z,0.00
2022-10-13T18:40:28.806Z,0.00
2022-10-13T18:45:17.782Z,0.00
2022-10-13T18:50:23.835Z,0.00
2022-10-13T18:55:29.852Z,0.00
2022-10-13T19:00:18.989Z,0.00
2022-10-13T19:05:24.435Z,0.00
2022-10-13T19:10:30.502Z,0.00
2022-10-13T19:15:19.444Z,0.00
2022-10-13T19:20:25.515Z,0.00
2022-10-13T19:25:31.608Z,0.00
2022-10-13T19:30:20.263Z,0.00
2022-10-13T19:35:26.330Z,0.00
2022-10-13T19:40:32.543Z,0.00
2022-10-13T19:45:21.414Z,0.00
2022-10-13T19:50:27.488Z,0.00
2022-10-13T19:55:16.550Z,0.00
2022-10-13T20:00:22.835Z,0.00
2022-10-13T20:05:28.046Z,0.00
2022-10-13T20:10:17.063Z,0.00
2022-10-13T20:15:23.168Z,0.00
2022-10-13T20:20:29.205Z,0.00
2022-10-13T20:25:18.271Z,0.00
2022-10-13T20:30:23.892Z,0.00
2022-10-13T20:35:29.954Z,0.00
2022-10-13T20:40:18.998Z,0.00
2022-10-13T20:45:25.086Z,0.00
2022-10-13T20:50:31.110Z,0.00
2022-10-13T20:55:20.490Z,0.00
2022-10-13T21:00:26.321Z,0.00
2022-10-13T21:05:32.057Z,0.00
2022-10-13T21:10:21.076Z,0.00
2022-10-13T21:15:27.236Z,0.00
2022-10-13T21:20:16.259Z,0.00
2022-10-13T21:25:22.282Z,0.00
2022-10-13T21:30:28.563Z,0.00
2022-10-13T21:35:17.498Z,0.00
2022-10-13T21:40:23.626Z,0.00
2022-10-13T21:45:29.753Z,0.00
2022-10-13T21:50:18.750Z,0.00
2022-10-13T21:55:24.750Z,0.00
2022-10-13T22:00:30.933Z,0.00
2022-10-13T22:05:19.275Z,0.00
2022-10-13T22:10:25.293Z,0.00
2022-10-13T22:15:31.384Z,0.00
2022-10-13T22:20:20.469Z,0.00
2022-10-13T22:25:26.491Z,0.00
2022-10-13T22:30:32.084Z,0.00
2022-10-13T22:35:21.226Z,0.00
2022-10-13T22:40:27.248Z,0.00
2022-10-13T22:45:16.227Z,0.00
2022-10-13T22:50:22.997Z,0.00
2022-10-13T22:55:28.464Z,0.00
2022-10-13T23:00:17.496Z,0.00
2022-10-13T23:05:22.944Z,0.00
2022-10-13T23:10:28.936Z,0.00
2022-10-13T23:15:17.984Z,0.00
2022-10-13T23:20:24.073Z,0.00
2022-10-13T23:25:30.105Z,0.00
2022-10-13T23:30:19.708Z,0.00
2022-10-13T23:35:25.746Z,0.00
2022-10-13T23:40:31.881Z,0.00
2022-10-13T23:45:20.889Z,0.00
2022-10-13T23:50:27.118Z,0.00
2022-10-13T23:55:32.995Z,0.00
